Flight Track Log - Related Links

Times and Time Zones

All times are in EDT time to prevent confusion due to time zone crossing. See the N406RC flight status page for this flight to view local times or setup timezone preferences in your user account.

Time Position Orientation Groundspeed Altitude Reporting Facility
EDT Latitude Longitude Course Direction KTS MPH feet Rate Location/Type
Fri 07:14:24 PM 44.5972 -103.4611 69° East 153 176 8,200  Level Denver Center
Fri 07:15:24 PM 44.6078 -103.4017 76° East 152 175 8,700 522 Climbing Denver Center
Fri 07:16:19 PM 44.6175 -103.3511 75° East 150 173 9,200 574 Climbing Denver Center
Fri 07:17:19 PM 44.6303 -103.2911 73° East 152 175 9,800 1,009 Climbing Denver Center
Fri 07:18:06 PM 44.6392 -103.2500 73° East 155 178 11,000 661 Climbing Denver Center
Fri 07:19:00 PM 44.4685 -103.7601 69° East  Level FlightAware Approximate
Fri 07:19:08 PM 44.6500 -103.1933 75° East 156 180 11,000  Level Denver Center
Fri 07:20:10 PM 44.6647 -103.1325 71° East 158 182 11,000  Level Denver Center
Fri 07:21:12 PM 44.6789 -103.0725 72° East 167 192 11,000 48 Level Denver Center
Fri 07:22:14 PM 44.6878 -102.9883 82° East 188 216 11,100 48 Climbing Denver Center
Fri 07:23:16 PM 44.7003 -102.9175 76° East 188 216 11,100  Level Denver Center
Fri 07:24:18 PM 44.7108 -102.8436 79° East 190 219 11,100  Level Denver Center
Fri 07:25:20 PM 44.7250 -102.7719 74° East 191 220 11,100  Level Denver Center
Fri 07:26:22 PM 44.7450 -102.6883 71° East 189 217 11,100  Level Denver Center
Fri 07:27:24 PM 44.7558 -102.6167 78° East 188 216 11,100  Level Denver Center
Fri 07:28:26 PM 44.7681 -102.5428 77° East 191 220 11,100  Level Denver Center
Fri 07:29:28 PM 44.7833 -102.4689 74° East 194 223 11,100  Level Denver Center
Fri 07:30:30 PM 44.7958 -102.3953 77° East 194 223 11,100  Level Denver Center
Fri 07:31:32 PM 44.8078 -102.3367 74° East 195 224 11,100  Level Denver Center
Fri 07:32:34 PM 44.8236 -102.2494 76° East 194 223 11,100  Level Denver Center
Fri 07:33:36 PM 44.8389 -102.1644 76° East 189 217 11,100  Level Denver Center
Fri 07:34:38 PM 44.8519 -102.0931 76° East 188 216 11,100  Level Denver Center
Fri 07:35:01 PM 44.8606 -102.0650 67° East 188 216 11,100  Level Minneapolis Center
Fri 07:36:03 PM 44.8736 -101.9911 76° East 191 220 11,100  Level Minneapolis Center
Fri 07:37:05 PM 44.8861 -101.9178 76° East 192 221 11,100  Level Minneapolis Center
Fri 07:38:07 PM 44.8997 -101.8414 76° East 197 227 11,100 -48 Level Minneapolis Center
Fri 07:39:09 PM 44.9161 -101.7669 73° East 198 228 11,000 -48 Descending Minneapolis Center
Fri 07:40:11 PM 44.9250 -101.6922 80° East 196 226 11,000  Level Minneapolis Center
Fri 07:41:13 PM 44.9411 -101.6064 75° East 192 221 11,000  Level Minneapolis Center
Fri 07:42:16 PM 44.9569 -101.5319 73° East 194 223 11,000  Level Minneapolis Center
Fri 07:43:18 PM 44.9669 -101.4575 79° East 193 222 11,000  Level Minneapolis Center
Fri 07:44:20 PM 44.9803 -101.3842 76° East 194 223 11,000  Level Minneapolis Center
Fri 07:45:22 PM 44.9939 -101.3125 75° East 192 221 11,000  Level Minneapolis Center
Fri 07:46:24 PM 45.0053 -101.2369 78° East 194 223 11,000  Level Minneapolis Center
Fri 07:47:26 PM 45.0211 -101.1497 76° East 192 221 11,000  Level Minneapolis Center
Fri 07:48:28 PM 45.0342 -101.0772 76° East 191 220 11,000  Level Minneapolis Center
Fri 07:49:30 PM 45.0458 -101.0042 77° East 191 220 11,000  Level Minneapolis Center
Fri 07:50:32 PM 45.0589 -100.9278 76° East 194 223 11,000  Level Minneapolis Center
Fri 07:51:34 PM 45.0719 -100.8531 76° East 196 226 11,000  Level Minneapolis Center
Fri 07:52:35 PM 45.0822 -100.7933 76° East 195 224 11,000  Level Minneapolis Center
Fri 07:53:38 PM 45.0997 -100.6864 77° East 198 228 11,000  Level Minneapolis Center
Fri 07:54:40 PM 45.1128 -100.6106 76° East 198 228 11,000  Level Minneapolis Center
Fri 07:55:41 PM 45.1250 -100.5336 77° East 199 229 11,000  Level Minneapolis Center
Fri 07:56:43 PM 45.1375 -100.4581 77° East 198 228 11,000  Level Minneapolis Center
Fri 07:57:57 PM 45.1497 -100.3825 77° East 198 228 11,000  Level Minneapolis Center
Fri 07:59:00 PM 45.1644 -100.2917 77° East 197 227 11,000 -144 Level Minneapolis Center
Fri 08:00:02 PM 45.1769 -100.2142 77° East 198 228 10,700 -309 Descending Minneapolis Center
Fri 08:01:16 PM 45.1928 -100.1181 77° East 203 234 10,300 -309 Descending Minneapolis Center
Fri 08:02:18 PM 45.2083 -100.0225 77° East 205 236 10,000 -242 Descending Minneapolis Center
Fri 08:03:20 PM 45.2203 -99.9425 78° East 205 236 9,800 -242 Descending Minneapolis Center
Fri 08:04:22 PM 45.2331 -99.8639 77° East 204 235 9,500 -290 Descending Minneapolis Center
Fri 08:05:24 PM 45.2450 -99.7867 78° East 202 232 9,200 -242 Descending Minneapolis Center
Fri 08:06:26 PM 45.2572 -99.7086 77° East 201 231 9,000 -290 Descending Minneapolis Center
Fri 08:07:28 PM 45.2692 -99.6306 78° East 201 231 8,600 -387 Descending Minneapolis Center
Fri 08:08:30 PM 45.2814 -99.5522 77° East 202 232 8,200 -353 Descending Minneapolis Center
Fri 08:09:44 PM 45.2961 -99.4589 77° East 202 232 7,800 -353 Descending Minneapolis Center
Fri 08:10:46 PM 45.3106 -99.3658 78° East 202 232 7,400 -290 Descending Minneapolis Center
Fri 08:11:48 PM 45.3211 -99.2911 79° East 199 229 7,200 -194 Descending Minneapolis Center
Fri 08:12:50 PM 45.3328 -99.2178 77° East 194 223 7,000 -194 Descending Minneapolis Center
Fri 08:13:52 PM 45.3439 -99.1461 78° East 190 219 6,800 -192 Descending Minneapolis Center
Fri 08:14:55 PM 45.3544 -99.0742 78° East 188 216 6,600 -145 Descending Minneapolis Center
Fri 08:15:56 PM 45.3667 -98.9911 78° East 183 211 6,500 -145 Descending Minneapolis Center
Fri 08:16:59 PM 45.3764 -98.9228 79° East 180 207 6,300 -190 Descending Minneapolis Center
Fri 08:18:00 PM 45.3787 -98.8769 86° East  Level FlightAware Approximate
Fri 08:25:00 PM 45.4136 -98.5629 79° East  Level FlightAware Approximate
Fri 08:26:00 PM 45.4196 -98.5184 79° East  Level FlightAware Approximate
Fri 08:27:00 PM 45.4256 -98.4739 79° East  Level FlightAware Approximate
Fri 08:28:00 PM 45.4316 -98.4295 79° East  Level FlightAware Approximate
Fri 08:29:00 PM 45.4333 -98.4167 79° East  Level FlightAware Approximate

Login

Don't have an account? Register now (free) for customized features, flight alerts, and more!